createdAt,value
2017-08-29T00:00:43.107Z,9.93
2017-08-29T00:03:09.933Z,9.80
2017-08-29T00:05:36.820Z,10.30
2017-08-29T00:08:03.686Z,9.83
2017-08-29T00:10:30.532Z,9.33
2017-08-29T00:12:57.380Z,9.60
2017-08-29T00:15:24.226Z,10.00
2017-08-29T00:17:51.097Z,9.60
2017-08-29T00:20:17.919Z,9.73
2017-08-29T00:22:44.776Z,9.10
2017-08-29T00:25:11.735Z,9.60
2017-08-29T00:27:38.616Z,9.80
2017-08-29T00:30:05.532Z,9.10
2017-08-29T00:32:32.398Z,9.10
2017-08-29T00:34:59.265Z,10.20
2017-08-29T00:37:26.213Z,9.60
2017-08-29T00:39:53.092Z,9.60
2017-08-29T00:42:19.969Z,8.33
2017-08-29T00:44:46.890Z,8.43
2017-08-29T00:47:13.746Z,9.43
2017-08-29T00:49:40.629Z,9.00
2017-08-29T00:52:07.490Z,8.90
2017-08-29T00:54:34.368Z,9.13
2017-08-29T00:57:01.180Z,9.67
2017-08-29T00:59:28.041Z,9.10
2017-08-29T01:01:54.912Z,8.97
2017-08-29T01:04:21.824Z,9.17
2017-08-29T01:06:48.747Z,8.67
2017-08-29T01:09:15.611Z,8.97
2017-08-29T01:11:42.497Z,8.90
2017-08-29T01:14:09.418Z,8.57
2017-08-29T01:16:36.261Z,9.27
2017-08-29T01:19:03.076Z,8.73
2017-08-29T01:21:30.011Z,8.30
2017-08-29T01:23:56.832Z,8.77
2017-08-29T01:26:23.691Z,9.00
2017-08-29T01:28:50.604Z,8.70
2017-08-29T01:31:17.504Z,8.80
2017-08-29T01:33:44.322Z,8.00
2017-08-29T01:36:11.198Z,8.00
2017-08-29T01:38:38.023Z,8.67
2017-08-29T01:41:04.903Z,8.33
2017-08-29T01:43:31.794Z,7.80
2017-08-29T01:45:58.671Z,7.80
2017-08-29T01:48:25.530Z,7.97
2017-08-29T01:50:52.447Z,8.13
2017-08-29T01:53:19.333Z,8.10
2017-08-29T01:55:46.235Z,7.90
2017-08-29T01:58:13.164Z,8.00
2017-08-29T02:00:40.005Z,7.93
2017-08-29T02:03:06.867Z,8.30
2017-08-29T02:05:33.717Z,8.40
2017-08-29T02:08:00.534Z,8.50
2017-08-29T02:10:27.399Z,8.30
2017-08-29T02:12:54.291Z,8.37
2017-08-29T02:15:21.123Z,7.60
2017-08-29T02:17:47.999Z,7.47
2017-08-29T02:20:14.918Z,7.77
2017-08-29T02:22:41.731Z,8.10
2017-08-29T02:25:08.577Z,7.67
2017-08-29T02:27:35.484Z,8.30
2017-08-29T02:30:02.301Z,8.23
2017-08-29T02:32:29.118Z,7.20
2017-08-29T02:34:55.971Z,7.57
2017-08-29T02:37:22.832Z,8.03
2017-08-29T02:39:49.676Z,8.07
2017-08-29T02:42:16.574Z,8.40
2017-08-29T02:44:43.415Z,7.77
2017-08-29T02:47:10.296Z,7.87
2017-08-29T02:49:37.208Z,7.97
2017-08-29T02:52:04.059Z,8.10
2017-08-29T02:54:30.864Z,8.10
2017-08-29T02:56:57.716Z,7.70
2017-08-29T02:59:24.519Z,8.10
2017-08-29T03:01:51.478Z,7.97
2017-08-29T03:04:18.326Z,8.10
2017-08-29T03:06:45.132Z,7.97
2017-08-29T03:09:11.990Z,8.27
2017-08-29T03:11:38.930Z,8.33
2017-08-29T03:14:05.792Z,7.63
2017-08-29T03:19:07.504Z,9.80
2017-08-29T03:21:35.081Z,9.03
2017-08-29T03:24:02.617Z,8.57
2017-08-29T03:26:30.230Z,8.13
2017-08-29T03:28:57.825Z,8.00
2017-08-29T03:31:25.452Z,7.33
2017-08-29T03:33:53.075Z,7.73
2017-08-29T03:36:20.709Z,7.53
2017-08-29T03:38:48.264Z,7.50
2017-08-29T03:41:15.884Z,8.13
2017-08-29T03:43:43.487Z,7.80
2017-08-29T03:46:10.298Z,7.87
2017-08-29T03:48:37.198Z,7.67
2017-08-29T03:51:04.063Z,7.43
2017-08-29T03:53:30.922Z,7.60
2017-08-29T03:55:57.875Z,8.23
2017-08-29T03:58:24.692Z,8.60
2017-08-29T04:00:51.574Z,7.80
2017-08-29T04:03:18.452Z,7.73
2017-08-29T04:05:45.295Z,6.97
2017-08-29T04:08:12.150Z,7.60
2017-08-29T04:10:39.028Z,7.63
2017-08-29T04:13:05.878Z,7.00
2017-08-29T04:15:32.753Z,7.53
2017-08-29T04:17:59.675Z,7.10
2017-08-29T04:20:26.555Z,7.03
2017-08-29T04:22:53.415Z,7.70
2017-08-29T04:25:20.324Z,7.60
2017-08-29T04:27:47.172Z,7.23
2017-08-29T04:30:14.102Z,7.03
2017-08-29T04:32:41.005Z,7.20
2017-08-29T04:35:07.862Z,7.67
2017-08-29T04:37:34.802Z,8.30
2017-08-29T04:40:01.693Z,7.80
2017-08-29T04:42:28.511Z,7.87
2017-08-29T04:44:55.377Z,7.43
2017-08-29T04:47:22.255Z,7.33
2017-08-29T04:49:49.110Z,7.67
2017-08-29T04:52:15.921Z,7.60
2017-08-29T04:54:42.819Z,7.70
2017-08-29T04:57:09.660Z,7.70
2017-08-29T04:59:36.521Z,7.33
2017-08-29T05:02:03.534Z,7.50
2017-08-29T05:04:30.381Z,7.83
2017-08-29T05:06:57.261Z,7.70
2017-08-29T05:09:24.148Z,7.40
2017-08-29T05:11:50.962Z,7.90
2017-08-29T05:14:17.829Z,8.00
2017-08-29T05:16:44.744Z,7.63
2017-08-29T05:19:11.601Z,7.37
2017-08-29T05:21:38.490Z,7.97
2017-08-29T05:24:05.372Z,10.40
2017-08-29T05:26:32.256Z,13.87
2017-08-29T05:28:59.131Z,13.33
2017-08-29T05:31:26.029Z,14.40
2017-08-29T05:33:52.852Z,11.57
2017-08-29T05:36:19.728Z,9.27
2017-08-29T05:38:46.656Z,9.10
2017-08-29T05:41:13.506Z,8.50
2017-08-29T05:43:40.350Z,8.70
2017-08-29T05:46:07.193Z,8.10
2017-08-29T05:48:34.007Z,8.30
2017-08-29T05:51:00.843Z,8.67
2017-08-29T05:53:27.751Z,8.27
2017-08-29T05:55:54.636Z,7.97
2017-08-29T05:58:21.510Z,7.37
2017-08-29T06:00:48.406Z,8.10
2017-08-29T06:03:15.284Z,8.53
2017-08-29T06:05:42.124Z,8.97
2017-08-29T06:08:09.012Z,9.20
2017-08-29T06:10:35.859Z,8.50
2017-08-29T06:13:02.712Z,9.73
2017-08-29T06:15:29.605Z,8.63
2017-08-29T06:17:56.457Z,8.73
2017-08-29T06:20:23.299Z,8.00
2017-08-29T06:22:50.192Z,8.70
2017-08-29T06:25:17.049Z,7.20
2017-08-29T06:27:43.933Z,7.73
2017-08-29T06:30:10.828Z,8.67
2017-08-29T06:32:37.729Z,8.10
2017-08-29T06:35:04.629Z,8.30
2017-08-29T06:37:31.538Z,8.10
2017-08-29T06:39:58.351Z,8.33
2017-08-29T06:42:25.159Z,8.50
2017-08-29T06:44:52.043Z,8.33
2017-08-29T06:47:18.923Z,9.10
2017-08-29T06:49:45.800Z,7.53
2017-08-29T06:52:12.772Z,8.10
2017-08-29T06:54:39.588Z,8.50
2017-08-29T06:57:06.477Z,8.03
2017-08-29T06:59:33.328Z,7.57
2017-08-29T07:02:00.231Z,7.67
2017-08-29T07:04:27.086Z,7.70
2017-08-29T07:06:53.963Z,7.77
2017-08-29T07:09:20.790Z,7.97
2017-08-29T07:11:47.601Z,7.33
2017-08-29T07:14:14.497Z,7.63
2017-08-29T07:16:41.358Z,7.97
2017-08-29T07:19:08.170Z,7.83
2017-08-29T07:21:35.086Z,8.00
2017-08-29T07:24:02.010Z,7.50
2017-08-29T07:26:28.870Z,8.33
2017-08-29T07:28:55.779Z,7.60
2017-08-29T07:31:22.652Z,7.93
2017-08-29T07:33:49.511Z,8.23
2017-08-29T07:36:16.431Z,7.60
2017-08-29T07:38:43.309Z,7.67
2017-08-29T07:41:10.147Z,7.67
2017-08-29T07:43:37.065Z,7.90
2017-08-29T07:46:03.919Z,8.30
2017-08-29T07:48:30.771Z,6.90
2017-08-29T07:50:57.687Z,7.17
2017-08-29T07:53:24.553Z,6.70
2017-08-29T07:55:51.375Z,6.83
2017-08-29T07:58:18.217Z,7.20
2017-08-29T08:00:45.055Z,6.70
2017-08-29T08:03:12.004Z,7.20
2017-08-29T08:05:38.842Z,6.90
2017-08-29T08:08:05.684Z,6.60
2017-08-29T08:10:32.549Z,6.47
2017-08-29T08:12:59.440Z,6.00
2017-08-29T08:15:26.311Z,6.77
2017-08-29T08:17:53.190Z,6.43
2017-08-29T08:20:20.270Z,6.30
2017-08-29T08:22:47.153Z,6.60
2017-08-29T08:25:13.995Z,7.40
2017-08-29T08:27:40.883Z,7.80
2017-08-29T08:30:07.740Z,6.77
2017-08-29T08:32:34.616Z,6.20
2017-08-29T08:35:01.464Z,6.03
2017-08-29T08:37:28.303Z,6.20
2017-08-29T08:39:55.148Z,6.53
2017-08-29T08:42:22.028Z,7.20
2017-08-29T08:44:48.885Z,7.40
2017-08-29T08:47:15.695Z,8.10
2017-08-29T08:49:42.598Z,7.40
2017-08-29T08:52:09.560Z,8.40
2017-08-29T08:54:36.396Z,7.83
2017-08-29T08:57:03.244Z,7.87
2017-08-29T08:59:30.147Z,8.60
2017-08-29T09:01:57.001Z,8.40
2017-08-29T09:04:23.893Z,8.13
2017-08-29T09:06:50.757Z,9.20
2017-08-29T09:09:17.598Z,8.20
2017-08-29T09:11:44.493Z,9.00
2017-08-29T09:14:11.372Z,8.47
2017-08-29T09:16:38.233Z,8.30
2017-08-29T09:19:05.138Z,8.43
2017-08-29T09:21:32.070Z,9.77
2017-08-29T09:23:58.878Z,8.90
2017-08-29T09:26:25.783Z,10.13
2017-08-29T09:28:52.667Z,10.10
2017-08-29T09:31:19.485Z,9.67
2017-08-29T09:33:46.389Z,9.67
2017-08-29T09:36:13.328Z,9.23
2017-08-29T09:38:40.201Z,9.23
2017-08-29T09:41:07.416Z,9.10
2017-08-29T09:43:34.292Z,9.03
2017-08-29T09:46:01.204Z,8.50
2017-08-29T09:48:28.102Z,9.17
2017-08-29T09:50:54.997Z,9.60
2017-08-29T09:53:21.896Z,9.03
2017-08-29T09:55:48.801Z,10.23
2017-08-29T09:58:15.681Z,9.27
2017-08-29T10:00:42.676Z,10.50
2017-08-29T10:03:09.784Z,9.90
2017-08-29T10:05:36.636Z,10.13
2017-08-29T10:08:03.459Z,9.40
2017-08-29T10:10:30.373Z,9.67
2017-08-29T10:12:57.231Z,9.40
2017-08-29T10:15:24.048Z,9.10
2017-08-29T10:17:50.967Z,9.60
2017-08-29T10:20:17.829Z,10.30
2017-08-29T10:22:44.673Z,9.80
2017-08-29T10:25:11.573Z,10.90
2017-08-29T10:27:38.448Z,9.60
2017-08-29T10:30:05.305Z,10.13
2017-08-29T10:32:32.171Z,11.07
2017-08-29T10:34:58.991Z,11.07
2017-08-29T10:37:25.840Z,9.67
2017-08-29T10:39:52.798Z,10.10
2017-08-29T10:42:19.647Z,11.70
2017-08-29T10:44:46.496Z,11.17
2017-08-29T10:47:13.412Z,12.37
2017-08-29T10:49:40.292Z,11.87
2017-08-29T10:52:07.170Z,12.90
2017-08-29T10:54:34.023Z,12.50
2017-08-29T10:57:00.874Z,13.47
2017-08-29T10:59:27.752Z,13.03
2017-08-29T11:01:54.692Z,13.53
2017-08-29T11:04:21.578Z,13.53
2017-08-29T11:06:48.476Z,12.97
2017-08-29T11:09:15.422Z,14.20
2017-08-29T11:11:42.272Z,13.53
2017-08-29T11:14:09.086Z,14.70
2017-08-29T11:16:35.974Z,15.13
2017-08-29T11:19:02.845Z,14.77
2017-08-29T11:21:29.673Z,14.40
2017-08-29T11:23:56.601Z,15.80
2017-08-29T11:26:23.460Z,14.47
2017-08-29T11:28:50.336Z,15.40
2017-08-29T11:31:17.244Z,14.07
2017-08-29T11:33:44.153Z,14.97
2017-08-29T11:36:11.048Z,14.40
2017-08-29T11:38:37.941Z,15.57
2017-08-29T11:41:04.808Z,14.80
2017-08-29T11:43:31.655Z,15.23
2017-08-29T11:45:58.574Z,13.83
2017-08-29T11:48:25.495Z,13.90
2017-08-29T11:50:52.318Z,14.43
2017-08-29T11:53:19.227Z,13.03
2017-08-29T11:55:46.129Z,13.53
2017-08-29T11:58:13.009Z,12.90
2017-08-29T12:00:39.919Z,13.20
2017-08-29T12:03:06.819Z,13.40
2017-08-29T12:05:33.646Z,12.00
2017-08-29T12:08:00.507Z,11.90
2017-08-29T12:10:27.402Z,11.63
2017-08-29T12:12:54.270Z,10.70
2017-08-29T12:15:21.159Z,10.27
2017-08-29T12:17:47.977Z,9.77
2017-08-29T12:20:14.848Z,10.57
2017-08-29T12:22:41.741Z,9.50
2017-08-29T12:25:08.559Z,9.97
2017-08-29T12:27:35.432Z,9.73
2017-08-29T12:30:02.354Z,10.20
2017-08-29T12:32:29.221Z,9.90
2017-08-29T12:34:56.084Z,9.77
2017-08-29T12:37:22.951Z,9.60
2017-08-29T12:39:49.817Z,10.20
2017-08-29T12:42:16.702Z,8.90
2017-08-29T12:44:43.658Z,8.83
2017-08-29T12:47:10.596Z,8.90
2017-08-29T12:49:37.415Z,9.60
2017-08-29T12:52:04.275Z,9.80
2017-08-29T12:54:31.162Z,8.67
2017-08-29T12:56:57.983Z,9.70
2017-08-29T12:59:24.858Z,9.87
2017-08-29T13:01:51.702Z,9.73
2017-08-29T13:04:18.582Z,9.40
2017-08-29T13:06:45.480Z,10.00
2017-08-29T13:09:12.338Z,9.30
2017-08-29T13:11:39.201Z,9.70
2017-08-29T13:14:06.170Z,8.93
2017-08-29T13:16:32.986Z,11.00
2017-08-29T13:18:59.856Z,9.50
2017-08-29T13:21:26.758Z,8.90
2017-08-29T13:23:53.627Z,9.27
2017-08-29T13:26:20.496Z,9.70
2017-08-29T13:28:47.381Z,9.37
2017-08-29T13:31:14.265Z,9.27
2017-08-29T13:33:41.125Z,9.83
2017-08-29T13:36:08.017Z,10.63
2017-08-29T13:38:34.878Z,9.60
2017-08-29T13:41:01.841Z,10.33
2017-08-29T13:43:28.734Z,9.37
2017-08-29T13:45:55.625Z,9.70
2017-08-29T13:48:22.528Z,9.70
2017-08-29T13:50:49.420Z,9.63
2017-08-29T13:53:16.357Z,10.10
2017-08-29T13:55:43.238Z,9.80
2017-08-29T13:58:11.009Z,9.80
2017-08-29T14:00:37.911Z,10.77
2017-08-29T14:03:04.735Z,9.43
2017-08-29T14:05:31.657Z,11.10
2017-08-29T14:07:58.552Z,27.50
2017-08-29T14:10:25.426Z,17.43
2017-08-29T14:12:52.349Z,17.00
2017-08-29T14:15:19.213Z,12.10
2017-08-29T14:17:46.110Z,13.87
2017-08-29T14:20:12.994Z,11.73
2017-08-29T14:22:39.846Z,11.97
2017-08-29T14:25:06.735Z,11.10
2017-08-29T14:27:33.697Z,12.30
2017-08-29T14:30:00.636Z,10.60
2017-08-29T14:32:27.506Z,11.70
2017-08-29T14:34:54.429Z,10.97
2017-08-29T14:37:21.357Z,12.73
2017-08-29T14:39:48.212Z,13.23
2017-08-29T14:42:15.067Z,13.93
2017-08-29T14:44:41.937Z,11.87
2017-08-29T14:47:14.644Z,10.50
2017-08-29T14:49:41.504Z,10.27
2017-08-29T14:52:08.358Z,10.13
2017-08-29T14:54:35.298Z,10.43
2017-08-29T14:57:02.243Z,11.00
2017-08-29T14:59:29.063Z,9.67
2017-08-29T15:01:55.937Z,9.87
2017-08-29T15:04:22.865Z,10.23
2017-08-29T15:06:49.749Z,10.60
2017-08-29T15:09:16.769Z,11.70
2017-08-29T15:11:43.811Z,10.87
2017-08-29T15:14:10.690Z,10.50
2017-08-29T15:16:37.540Z,10.90
2017-08-29T15:19:04.388Z,9.73
2017-08-29T15:21:31.386Z,9.80
2017-08-29T15:23:58.272Z,11.90
2017-08-29T15:26:25.173Z,11.50
2017-08-29T15:28:52.072Z,11.30
2017-08-29T15:31:18.955Z,12.57
2017-08-29T15:33:45.858Z,12.27
2017-08-29T15:36:12.844Z,11.03
2017-08-29T15:38:39.696Z,11.97
2017-08-29T15:41:06.620Z,11.50
2017-08-29T15:43:33.450Z,10.40
2017-08-29T15:46:00.419Z,9.87
2017-08-29T15:48:27.339Z,12.27
2017-08-29T15:50:54.212Z,12.53
2017-08-29T15:53:21.693Z,13.17
2017-08-29T15:55:48.601Z,12.73
2017-08-29T15:58:15.450Z,11.53
2017-08-29T16:00:42.338Z,10.87
2017-08-29T16:03:09.335Z,9.90
2017-08-29T16:05:36.233Z,11.77
2017-08-29T16:08:03.062Z,9.83
2017-08-29T16:10:29.989Z,10.50
2017-08-29T16:12:56.851Z,12.13
2017-08-29T16:15:23.698Z,10.90
2017-08-29T16:17:50.598Z,12.90
2017-08-29T16:20:17.480Z,11.00
2017-08-29T16:22:44.365Z,10.13
2017-08-29T16:25:11.267Z,10.97
2017-08-29T16:27:38.168Z,11.57
2017-08-29T16:30:05.028Z,11.63
2017-08-29T16:32:31.979Z,11.60
2017-08-29T16:34:58.827Z,10.97
2017-08-29T16:37:25.718Z,11.43
2017-08-29T16:39:52.622Z,11.50
2017-08-29T16:42:19.520Z,11.93
2017-08-29T16:44:46.411Z,11.53
2017-08-29T16:47:13.362Z,11.30
2017-08-29T16:49:40.198Z,11.83
2017-08-29T16:52:07.028Z,12.03
2017-08-29T16:54:33.898Z,12.10
2017-08-29T16:57:00.835Z,12.23
2017-08-29T16:59:27.702Z,11.23
2017-08-29T17:01:54.667Z,12.33
2017-08-29T17:04:21.557Z,10.57
2017-08-29T17:06:48.388Z,11.70
2017-08-29T17:09:15.280Z,11.30
2017-08-29T17:11:42.157Z,11.00
2017-08-29T17:14:09.001Z,9.63
2017-08-29T17:16:36.099Z,9.93
2017-08-29T17:19:02.980Z,10.97
2017-08-29T17:21:30.685Z,9.87
2017-08-29T17:23:57.595Z,11.40
2017-08-29T17:26:24.430Z,11.10
2017-08-29T17:28:51.295Z,11.03
2017-08-29T17:31:18.176Z,10.93
2017-08-29T17:33:45.040Z,10.20
2017-08-29T17:36:11.876Z,10.83
2017-08-29T17:38:38.798Z,10.70
2017-08-29T17:41:05.656Z,10.87
2017-08-29T17:43:32.503Z,9.43
2017-08-29T17:45:59.405Z,9.50
2017-08-29T17:48:26.237Z,10.20
2017-08-29T17:50:53.060Z,10.87
2017-08-29T17:53:19.965Z,9.63
2017-08-29T17:55:46.905Z,9.70
2017-08-29T17:58:13.780Z,8.60
2017-08-29T18:00:40.701Z,9.50
2017-08-29T18:03:07.597Z,9.10
2017-08-29T18:05:34.510Z,9.20
2017-08-29T18:08:01.379Z,8.80
2017-08-29T18:10:28.295Z,8.43
2017-08-29T18:12:55.155Z,8.13
2017-08-29T18:15:22.118Z,8.30
2017-08-29T18:17:48.984Z,8.67
2017-08-29T18:20:15.843Z,8.33
2017-08-29T18:22:42.781Z,8.30
2017-08-29T18:25:09.762Z,8.67
2017-08-29T18:27:36.625Z,9.33
2017-08-29T18:30:03.535Z,9.90
2017-08-29T18:32:30.391Z,9.90
2017-08-29T18:34:57.253Z,9.40
2017-08-29T18:37:24.172Z,8.40
2017-08-29T18:39:51.681Z,8.73
2017-08-29T18:42:18.499Z,9.83
2017-08-29T18:44:45.425Z,8.60
2017-08-29T18:47:12.304Z,9.50
2017-08-29T18:49:39.194Z,9.70
2017-08-29T18:52:06.116Z,9.57
2017-08-29T18:54:32.944Z,8.80
2017-08-29T18:56:59.760Z,9.43
2017-08-29T18:59:26.691Z,8.90
2017-08-29T19:01:53.564Z,8.50
2017-08-29T19:04:20.474Z,10.23
2017-08-29T19:06:47.336Z,8.90
2017-08-29T19:09:14.151Z,9.00
2017-08-29T19:11:41.041Z,9.70
2017-08-29T19:14:07.908Z,8.63
2017-08-29T19:16:34.772Z,9.07
2017-08-29T19:19:01.627Z,9.53
2017-08-29T19:21:28.483Z,9.10
2017-08-29T19:23:55.380Z,9.23
2017-08-29T19:26:22.259Z,9.03
2017-08-29T19:28:49.173Z,11.00
2017-08-29T19:31:16.548Z,9.80
2017-08-29T19:33:43.421Z,9.53
2017-08-29T19:36:10.329Z,9.10
2017-08-29T19:38:37.164Z,10.27
2017-08-29T19:41:03.984Z,9.77
2017-08-29T19:43:30.881Z,10.67
2017-08-29T19:45:57.800Z,11.63
2017-08-29T19:48:24.671Z,9.33
2017-08-29T19:50:51.589Z,8.70
2017-08-29T19:53:18.411Z,9.27
2017-08-29T19:55:45.237Z,9.00
2017-08-29T19:58:12.213Z,8.60
2017-08-29T20:00:39.036Z,8.77
2017-08-29T20:03:06.003Z,9.10
2017-08-29T20:05:32.861Z,7.80
2017-08-29T20:07:59.746Z,7.70
2017-08-29T20:10:26.634Z,8.40
2017-08-29T20:12:53.498Z,8.10
2017-08-29T20:15:20.388Z,7.60
2017-08-29T20:17:47.202Z,8.40
2017-08-29T20:20:14.151Z,7.90
2017-08-29T20:22:41.013Z,9.10
2017-08-29T20:25:07.896Z,8.13
2017-08-29T20:27:34.804Z,7.33
2017-08-29T20:30:01.692Z,6.87
2017-08-29T20:32:28.551Z,6.97
2017-08-29T20:34:55.439Z,6.37
2017-08-29T20:37:22.307Z,6.73
2017-08-29T20:39:49.161Z,6.50
2017-08-29T20:42:16.016Z,6.17
2017-08-29T20:44:42.935Z,6.37
2017-08-29T20:47:09.819Z,6.43
2017-08-29T20:49:36.666Z,6.43
2017-08-29T20:52:04.413Z,6.27
2017-08-29T20:54:31.270Z,5.80
2017-08-29T20:56:58.169Z,6.60
2017-08-29T20:59:24.978Z,6.77
2017-08-29T21:01:51.819Z,6.97
2017-08-29T21:04:18.713Z,6.57
2017-08-29T21:06:45.553Z,6.40
2017-08-29T21:09:12.391Z,5.60
2017-08-29T21:11:39.266Z,6.60
2017-08-29T21:14:06.075Z,6.33
2017-08-29T21:16:32.938Z,6.00
2017-08-29T21:18:59.819Z,6.60
2017-08-29T21:21:26.658Z,7.13
2017-08-29T21:23:53.511Z,6.40
2017-08-29T21:26:20.415Z,6.80
2017-08-29T21:28:47.254Z,7.53
2017-08-29T21:31:14.162Z,6.70
2017-08-29T21:33:41.037Z,6.90
2017-08-29T21:36:07.906Z,6.33
2017-08-29T21:38:34.773Z,6.47
2017-08-29T21:41:01.656Z,6.53
2017-08-29T21:43:28.509Z,6.23
2017-08-29T21:45:55.388Z,6.00
2017-08-29T21:48:22.290Z,5.50
2017-08-29T21:50:49.147Z,6.13
2017-08-29T21:53:16.000Z,6.20
2017-08-29T21:55:42.850Z,6.23
2017-08-29T21:58:09.702Z,6.63
2017-08-29T22:00:36.544Z,5.90
2017-08-29T22:03:03.408Z,6.00
2017-08-29T22:05:30.280Z,5.87
2017-08-29T22:07:57.201Z,6.40
2017-08-29T22:10:24.061Z,5.93
2017-08-29T22:12:50.913Z,5.93
2017-08-29T22:15:17.767Z,6.17
2017-08-29T22:17:44.643Z,5.40
2017-08-29T22:20:11.529Z,5.27
2017-08-29T22:22:38.376Z,5.50
2017-08-29T22:25:05.279Z,5.50
2017-08-29T22:27:32.100Z,5.70
2017-08-29T22:29:58.949Z,5.50
2017-08-29T22:32:25.854Z,5.80
2017-08-29T22:34:52.663Z,5.53
2017-08-29T22:37:19.537Z,5.73
2017-08-29T22:39:46.387Z,5.53
2017-08-29T22:42:13.201Z,5.87
2017-08-29T22:44:40.047Z,6.23
2017-08-29T22:47:06.900Z,6.23
2017-08-29T22:49:33.782Z,5.80
2017-08-29T22:52:00.644Z,6.03
2017-08-29T22:54:27.553Z,6.20
2017-08-29T22:56:54.410Z,5.67
2017-08-29T22:59:21.272Z,5.17
2017-08-29T23:01:48.173Z,5.63
2017-08-29T23:04:15.033Z,5.93
2017-08-29T23:06:41.919Z,6.40
2017-08-29T23:09:08.779Z,5.27
2017-08-29T23:11:35.660Z,5.80
2017-08-29T23:14:02.467Z,5.90
2017-08-29T23:16:29.378Z,5.63
2017-08-29T23:18:56.192Z,5.67
2017-08-29T23:21:23.046Z,5.60
2017-08-29T23:23:49.938Z,5.63
2017-08-29T23:26:16.748Z,5.63
2017-08-29T23:28:43.568Z,6.30
2017-08-29T23:31:10.471Z,5.80
2017-08-29T23:33:37.276Z,6.17
2017-08-29T23:36:04.236Z,6.40
2017-08-29T23:38:31.144Z,5.20
2017-08-29T23:40:57.954Z,5.03
2017-08-29T23:43:24.810Z,5.80
2017-08-29T23:45:51.709Z,5.97
2017-08-29T23:48:18.514Z,5.43
2017-08-29T23:50:45.362Z,6.00
2017-08-29T23:53:12.223Z,6.20
2017-08-29T23:55:39.063Z,5.80
2017-08-29T23:58:05.936Z,5.90
